sensor_id;sensor_type;location;lat;lon;timestamp;temperature;humidity
13409;DHT22;6775;49.574;11.170;2022-09-09T00:02:18;14.10;99.90
13409;DHT22;6775;49.574;11.170;2022-09-09T00:04:58;14.10;99.90
13409;DHT22;6775;49.574;11.170;2022-09-09T00:07:38;14.20;99.90
13409;DHT22;6775;49.574;11.170;2022-09-09T00:10:20;14.10;99.90
13409;DHT22;6775;49.574;11.170;2022-09-09T00:12:55;14.20;99.90
13409;DHT22;6775;49.574;11.170;2022-09-09T00:15:31;14.20;99.90
13409;DHT22;6775;49.574;11.170;2022-09-09T00:18:11;14.20;99.90
13409;DHT22;6775;49.574;11.170;2022-09-09T00:20:45;14.20;99.90
13409;DHT22;6775;49.574;11.170;2022-09-09T00:23:21;14.20;99.90
13409;DHT22;6775;49.574;11.170;2022-09-09T00:26:01;14.20;99.90
13409;DHT22;6775;49.574;11.170;2022-09-09T00:28:32;14.10;99.90
13409;DHT22;6775;49.574;11.170;2022-09-09T00:31:10;14.20;99.90
13409;DHT22;6775;49.574;11.170;2022-09-09T00:33:41;14.10;99.90
13409;DHT22;6775;49.574;11.170;2022-09-09T00:36:13;14.00;99.90
13409;DHT22;6775;49.574;11.170;2022-09-09T00:38:46;14.10;99.90
13409;DHT22;6775;49.574;11.170;2022-09-09T00:41:20;14.00;99.90
13409;DHT22;6775;49.574;11.170;2022-09-09T00:43:56;14.00;99.90
13409;DHT22;6775;49.574;11.170;2022-09-09T00:46:46;13.90;99.90
13409;DHT22;6775;49.574;11.170;2022-09-09T00:49:30;14.00;99.90
13409;DHT22;6775;49.574;11.170;2022-09-09T00:52:08;13.90;99.90
13409;DHT22;6775;49.574;11.170;2022-09-09T00:54:46;13.90;99.90
13409;DHT22;6775;49.574;11.170;2022-09-09T00:57:25;13.90;99.90
13409;DHT22;6775;49.574;11.170;2022-09-09T01:02:39;13.90;99.90
13409;DHT22;6775;49.574;11.170;2022-09-09T01:05:13;14.10;99.90
13409;DHT22;6775;49.574;11.170;2022-09-09T01:07:48;14.10;99.90
13409;DHT22;6775;49.574;11.170;2022-09-09T01:10:29;14.20;99.90
13409;DHT22;6775;49.574;11.170;2022-09-09T01:13:05;14.20;99.90
13409;DHT22;6775;49.574;11.170;2022-09-09T01:15:38;14.10;99.90
13409;DHT22;6775;49.574;11.170;2022-09-09T01:18:11;14.10;99.90
13409;DHT22;6775;49.574;11.170;2022-09-09T01:20:47;14.10;99.90
13409;DHT22;6775;49.574;11.170;2022-09-09T01:23:30;14.10;99.90
13409;DHT22;6775;49.574;11.170;2022-09-09T01:26:19;14.00;99.90
13409;DHT22;6775;49.574;11.170;2022-09-09T01:28:49;14.00;99.90
13409;DHT22;6775;49.574;11.170;2022-09-09T01:31:21;14.10;99.90
13409;DHT22;6775;49.574;11.170;2022-09-09T01:33:50;14.10;99.90
13409;DHT22;6775;49.574;11.170;2022-09-09T01:36:24;14.00;99.90
13409;DHT22;6775;49.574;11.170;2022-09-09T01:38:52;14.00;99.90
13409;DHT22;6775;49.574;11.170;2022-09-09T01:41:22;14.10;99.90
13409;DHT22;6775;49.574;11.170;2022-09-09T01:43:50;14.10;99.90
13409;DHT22;6775;49.574;11.170;2022-09-09T01:46:21;14.00;99.90
13409;DHT22;6775;49.574;11.170;2022-09-09T01:48:51;14.00;99.90
13409;DHT22;6775;49.574;11.170;2022-09-09T01:51:20;14.10;99.90
13409;DHT22;6775;49.574;11.170;2022-09-09T01:53:48;14.10;99.90
13409;DHT22;6775;49.574;11.170;2022-09-09T01:56:25;14.10;99.90
13409;DHT22;6775;49.574;11.170;2022-09-09T01:59:07;14.10;99.90
13409;DHT22;6775;49.574;11.170;2022-09-09T02:01:49;14.10;99.90
13409;DHT22;6775;49.574;11.170;2022-09-09T02:04:31;14.10;99.90
13409;DHT22;6775;49.574;11.170;2022-09-09T02:07:00;14.10;99.90
13409;DHT22;6775;49.574;11.170;2022-09-09T02:09:30;14.00;99.90
13409;DHT22;6775;49.574;11.170;2022-09-09T02:12:05;14.00;99.90
13409;DHT22;6775;49.574;11.170;2022-09-09T02:14:37;14.00;99.90
13409;DHT22;6775;49.574;11.170;2022-09-09T02:17:09;14.00;99.90
13409;DHT22;6775;49.574;11.170;2022-09-09T02:19:40;14.00;99.90
13409;DHT22;6775;49.574;11.170;2022-09-09T02:22:12;14.10;99.90
13409;DHT22;6775;49.574;11.170;2022-09-09T02:24:40;14.20;99.90
13409;DHT22;6775;49.574;11.170;2022-09-09T02:27:11;14.20;99.90
13409;DHT22;6775;49.574;11.170;2022-09-09T02:29:41;14.20;99.90
13409;DHT22;6775;49.574;11.170;2022-09-09T02:32:12;14.20;99.90
13409;DHT22;6775;49.574;11.170;2022-09-09T02:34:44;14.20;99.90
13409;DHT22;6775;49.574;11.170;2022-09-09T02:37:15;14.20;99.90
13409;DHT22;6775;49.574;11.170;2022-09-09T02:39:43;14.20;99.90
13409;DHT22;6775;49.574;11.170;2022-09-09T02:42:13;14.20;99.90
13409;DHT22;6775;49.574;11.170;2022-09-09T02:44:41;14.30;99.90
13409;DHT22;6775;49.574;11.170;2022-09-09T02:47:29;14.30;99.90
13409;DHT22;6775;49.574;11.170;2022-09-09T02:50:07;14.30;99.90
13409;DHT22;6775;49.574;11.170;2022-09-09T02:52:50;14.30;99.90
13409;DHT22;6775;49.574;11.170;2022-09-09T02:55:27;14.30;99.90
13409;DHT22;6775;49.574;11.170;2022-09-09T02:58:01;14.30;99.90
13409;DHT22;6775;49.574;11.170;2022-09-09T03:00:31;14.30;99.90
13409;DHT22;6775;49.574;11.170;2022-09-09T03:02:59;14.30;99.90
13409;DHT22;6775;49.574;11.170;2022-09-09T03:05:26;14.40;99.90
13409;DHT22;6775;49.574;11.170;2022-09-09T03:07:54;14.40;99.90
13409;DHT22;6775;49.574;11.170;2022-09-09T03:10:23;14.50;99.90
13409;DHT22;6775;49.574;11.170;2022-09-09T03:12:50;14.50;99.90
13409;DHT22;6775;49.574;11.170;2022-09-09T03:15:20;14.50;99.90
13409;DHT22;6775;49.574;11.170;2022-09-09T03:17:48;14.50;99.90
13409;DHT22;6775;49.574;11.170;2022-09-09T03:20:16;14.60;99.90
13409;DHT22;6775;49.574;11.170;2022-09-09T03:22:44;14.50;99.90
13409;DHT22;6775;49.574;11.170;2022-09-09T03:25:12;14.50;99.90
13409;DHT22;6775;49.574;11.170;2022-09-09T03:27:39;14.40;99.90
13409;DHT22;6775;49.574;11.170;2022-09-09T03:30:08;14.40;99.90
13409;DHT22;6775;49.574;11.170;2022-09-09T03:32:37;14.40;99.90
13409;DHT22;6775;49.574;11.170;2022-09-09T03:35:07;14.40;99.90
13409;DHT22;6775;49.574;11.170;2022-09-09T03:37:35;14.30;99.90
13409;DHT22;6775;49.574;11.170;2022-09-09T03:40:06;14.30;99.90
13409;DHT22;6775;49.574;11.170;2022-09-09T03:42:35;14.30;99.90
13409;DHT22;6775;49.574;11.170;2022-09-09T03:45:04;14.30;99.90
13409;DHT22;6775;49.574;11.170;2022-09-09T03:47:32;14.40;99.90
13409;DHT22;6775;49.574;11.170;2022-09-09T03:50:01;14.40;99.90
13409;DHT22;6775;49.574;11.170;2022-09-09T03:52:30;14.30;99.90
13409;DHT22;6775;49.574;11.170;2022-09-09T03:54:58;14.30;99.90
13409;DHT22;6775;49.574;11.170;2022-09-09T03:57:26;14.30;99.90
13409;DHT22;6775;49.574;11.170;2022-09-09T03:59:54;14.30;99.90
13409;DHT22;6775;49.574;11.170;2022-09-09T04:02:22;14.30;99.90
13409;DHT22;6775;49.574;11.170;2022-09-09T04:04:50;14.20;99.90
13409;DHT22;6775;49.574;11.170;2022-09-09T04:07:19;14.20;99.90
13409;DHT22;6775;49.574;11.170;2022-09-09T04:09:48;14.10;99.90
13409;DHT22;6775;49.574;11.170;2022-09-09T04:12:15;14.10;99.90
13409;DHT22;6775;49.574;11.170;2022-09-09T04:14:44;14.00;99.90
13409;DHT22;6775;49.574;11.170;2022-09-09T04:17:12;14.00;99.90
13409;DHT22;6775;49.574;11.170;2022-09-09T04:19:40;14.00;99.90
13409;DHT22;6775;49.574;11.170;2022-09-09T04:22:08;14.00;99.90
13409;DHT22;6775;49.574;11.170;2022-09-09T04:24:38;14.00;99.90
13409;DHT22;6775;49.574;11.170;2022-09-09T04:27:06;14.10;99.90
13409;DHT22;6775;49.574;11.170;2022-09-09T04:29:33;14.10;99.90
13409;DHT22;6775;49.574;11.170;2022-09-09T04:32:01;14.10;99.90
13409;DHT22;6775;49.574;11.170;2022-09-09T04:34:29;14.20;99.90
13409;DHT22;6775;49.574;11.170;2022-09-09T04:36:58;14.20;99.90
13409;DHT22;6775;49.574;11.170;2022-09-09T04:39:27;14.20;99.90
13409;DHT22;6775;49.574;11.170;2022-09-09T04:41:56;14.20;99.90
13409;DHT22;6775;49.574;11.170;2022-09-09T04:44:24;14.30;99.90
13409;DHT22;6775;49.574;11.170;2022-09-09T04:46:52;14.30;99.90
13409;DHT22;6775;49.574;11.170;2022-09-09T04:49:20;14.30;99.90
13409;DHT22;6775;49.574;11.170;2022-09-09T04:51:48;14.40;99.90
13409;DHT22;6775;49.574;11.170;2022-09-09T04:54:16;14.50;99.90
13409;DHT22;6775;49.574;11.170;2022-09-09T04:56:44;14.50;99.90
13409;DHT22;6775;49.574;11.170;2022-09-09T04:59:14;14.50;99.90
13409;DHT22;6775;49.574;11.170;2022-09-09T05:01:41;14.50;99.90
13409;DHT22;6775;49.574;11.170;2022-09-09T05:04:10;14.60;99.90
13409;DHT22;6775;49.574;11.170;2022-09-09T05:06:37;14.60;99.90
13409;DHT22;6775;49.574;11.170;2022-09-09T05:09:05;14.60;99.90
13409;DHT22;6775;49.574;11.170;2022-09-09T05:11:34;14.60;99.90
13409;DHT22;6775;49.574;11.170;2022-09-09T05:14:03;14.50;99.90
13409;DHT22;6775;49.574;11.170;2022-09-09T05:16:32;14.60;99.90
13409;DHT22;6775;49.574;11.170;2022-09-09T05:19:00;14.60;99.90
13409;DHT22;6775;49.574;11.170;2022-09-09T05:21:29;14.60;99.90
13409;DHT22;6775;49.574;11.170;2022-09-09T05:23:58;14.70;99.90
13409;DHT22;6775;49.574;11.170;2022-09-09T05:26:27;14.70;99.90
13409;DHT22;6775;49.574;11.170;2022-09-09T05:28:55;14.70;99.90
13409;DHT22;6775;49.574;11.170;2022-09-09T05:31:25;14.80;99.90
13409;DHT22;6775;49.574;11.170;2022-09-09T05:33:56;14.90;99.90
13409;DHT22;6775;49.574;11.170;2022-09-09T05:36:25;14.90;99.90
13409;DHT22;6775;49.574;11.170;2022-09-09T05:38:53;15.00;99.90
13409;DHT22;6775;49.574;11.170;2022-09-09T05:41:21;15.00;99.90
13409;DHT22;6775;49.574;11.170;2022-09-09T05:43:49;15.00;99.90
13409;DHT22;6775;49.574;11.170;2022-09-09T05:46:19;15.00;99.90
13409;DHT22;6775;49.574;11.170;2022-09-09T05:48:49;15.10;99.90
13409;DHT22;6775;49.574;11.170;2022-09-09T05:51:21;15.10;99.90
13409;DHT22;6775;49.574;11.170;2022-09-09T05:53:51;15.20;99.90
13409;DHT22;6775;49.574;11.170;2022-09-09T05:56:20;15.20;99.90
13409;DHT22;6775;49.574;11.170;2022-09-09T05:58:49;15.30;99.90
13409;DHT22;6775;49.574;11.170;2022-09-09T06:01:19;15.30;99.90
13409;DHT22;6775;49.574;11.170;2022-09-09T06:03:49;15.30;99.90
13409;DHT22;6775;49.574;11.170;2022-09-09T06:06:20;15.30;99.90
13409;DHT22;6775;49.574;11.170;2022-09-09T06:08:50;15.40;99.90
13409;DHT22;6775;49.574;11.170;2022-09-09T06:11:20;15.40;99.90
13409;DHT22;6775;49.574;11.170;2022-09-09T06:13:48;15.40;99.90
13409;DHT22;6775;49.574;11.170;2022-09-09T06:16:19;15.50;99.90
13409;DHT22;6775;49.574;11.170;2022-09-09T06:18:47;15.60;99.90
13409;DHT22;6775;49.574;11.170;2022-09-09T06:21:17;15.70;99.90
13409;DHT22;6775;49.574;11.170;2022-09-09T06:23:47;15.70;99.90
13409;DHT22;6775;49.574;11.170;2022-09-09T06:26:16;15.80;99.90
13409;DHT22;6775;49.574;11.170;2022-09-09T06:28:45;15.80;99.90
13409;DHT22;6775;49.574;11.170;2022-09-09T06:31:16;15.80;99.90
13409;DHT22;6775;49.574;11.170;2022-09-09T06:33:52;15.90;99.90
13409;DHT22;6775;49.574;11.170;2022-09-09T06:36:24;16.00;99.90
13409;DHT22;6775;49.574;11.170;2022-09-09T06:38:54;16.10;99.90
13409;DHT22;6775;49.574;11.170;2022-09-09T06:41:25;16.30;99.90
13409;DHT22;6775;49.574;11.170;2022-09-09T06:43:54;16.50;99.90
13409;DHT22;6775;49.574;11.170;2022-09-09T06:46:23;16.60;99.90
13409;DHT22;6775;49.574;11.170;2022-09-09T06:48:54;16.70;99.90
13409;DHT22;6775;49.574;11.170;2022-09-09T06:51:25;16.80;99.90
13409;DHT22;6775;49.574;11.170;2022-09-09T06:53:56;16.90;99.90
13409;DHT22;6775;49.574;11.170;2022-09-09T06:56:26;17.00;99.90
13409;DHT22;6775;49.574;11.170;2022-09-09T06:58:56;17.00;99.90
13409;DHT22;6775;49.574;11.170;2022-09-09T07:01:26;17.10;99.90
13409;DHT22;6775;49.574;11.170;2022-09-09T07:03:55;17.10;99.90
13409;DHT22;6775;49.574;11.170;2022-09-09T07:06:25;17.10;99.90
13409;DHT22;6775;49.574;11.170;2022-09-09T07:08:57;17.10;99.90
13409;DHT22;6775;49.574;11.170;2022-09-09T07:11:27;17.10;99.90
13409;DHT22;6775;49.574;11.170;2022-09-09T07:13:57;17.10;99.90
13409;DHT22;6775;49.574;11.170;2022-09-09T07:16:26;17.10;99.90
13409;DHT22;6775;49.574;11.170;2022-09-09T07:18:54;17.10;99.90
13409;DHT22;6775;49.574;11.170;2022-09-09T07:21:25;17.10;99.90
13409;DHT22;6775;49.574;11.170;2022-09-09T07:23:55;17.00;99.90
13409;DHT22;6775;49.574;11.170;2022-09-09T07:26:25;17.00;99.90
13409;DHT22;6775;49.574;11.170;2022-09-09T07:28:53;17.00;99.90
13409;DHT22;6775;49.574;11.170;2022-09-09T07:31:24;16.90;99.90
13409;DHT22;6775;49.574;11.170;2022-09-09T07:33:53;16.90;99.90
13409;DHT22;6775;49.574;11.170;2022-09-09T07:36:22;16.90;99.90
13409;DHT22;6775;49.574;11.170;2022-09-09T07:38:58;16.90;99.90
13409;DHT22;6775;49.574;11.170;2022-09-09T07:41:28;16.90;99.90
13409;DHT22;6775;49.574;11.170;2022-09-09T07:43:56;16.90;99.90
13409;DHT22;6775;49.574;11.170;2022-09-09T07:46:26;16.90;99.90
13409;DHT22;6775;49.574;11.170;2022-09-09T07:48:55;17.00;99.90
13409;DHT22;6775;49.574;11.170;2022-09-09T07:51:27;17.10;99.90
13409;DHT22;6775;49.574;11.170;2022-09-09T07:53:57;17.30;99.90
13409;DHT22;6775;49.574;11.170;2022-09-09T07:56:26;17.60;99.90
13409;DHT22;6775;49.574;11.170;2022-09-09T07:58:56;17.80;99.90
13409;DHT22;6775;49.574;11.170;2022-09-09T08:01:27;18.10;99.90
13409;DHT22;6775;49.574;11.170;2022-09-09T08:03:57;18.30;99.90
13409;DHT22;6775;49.574;11.170;2022-09-09T08:06:29;18.70;99.90
13409;DHT22;6775;49.574;11.170;2022-09-09T08:08:59;18.90;99.90
13409;DHT22;6775;49.574;11.170;2022-09-09T08:11:28;19.00;99.90
13409;DHT22;6775;49.574;11.170;2022-09-09T08:14:04;19.10;99.90
13409;DHT22;6775;49.574;11.170;2022-09-09T08:16:34;19.00;99.90
13409;DHT22;6775;49.574;11.170;2022-09-09T08:19:03;19.00;99.90
13409;DHT22;6775;49.574;11.170;2022-09-09T08:21:34;18.90;99.90
13409;DHT22;6775;49.574;11.170;2022-09-09T08:24:05;18.80;99.90
13409;DHT22;6775;49.574;11.170;2022-09-09T08:26:35;18.80;99.90
13409;DHT22;6775;49.574;11.170;2022-09-09T08:29:05;19.00;99.90
13409;DHT22;6775;49.574;11.170;2022-09-09T08:31:35;19.20;99.90
13409;DHT22;6775;49.574;11.170;2022-09-09T08:34:05;19.40;99.90
13409;DHT22;6775;49.574;11.170;2022-09-09T08:36:35;19.70;99.90
13409;DHT22;6775;49.574;11.170;2022-09-09T08:39:06;19.90;99.90
13409;DHT22;6775;49.574;11.170;2022-09-09T08:41:43;20.10;99.90
13409;DHT22;6775;49.574;11.170;2022-09-09T08:44:23;20.40;99.90
13409;DHT22;6775;49.574;11.170;2022-09-09T08:47:01;20.60;99.90
13409;DHT22;6775;49.574;11.170;2022-09-09T08:49:55;20.80;99.90
13409;DHT22;6775;49.574;11.170;2022-09-09T08:52:27;20.90;99.90
13409;DHT22;6775;49.574;11.170;2022-09-09T08:55:05;21.10;99.90
13409;DHT22;6775;49.574;11.170;2022-09-09T08:57:39;21.10;99.90
13409;DHT22;6775;49.574;11.170;2022-09-09T09:00:10;21.30;99.90
13409;DHT22;6775;49.574;11.170;2022-09-09T09:02:44;21.50;99.90
13409;DHT22;6775;49.574;11.170;2022-09-09T09:05:19;21.50;99.90
13409;DHT22;6775;49.574;11.170;2022-09-09T09:07:59;21.70;99.90
13409;DHT22;6775;49.574;11.170;2022-09-09T09:10:45;21.70;99.90
13409;DHT22;6775;49.574;11.170;2022-09-09T09:13:17;21.90;99.90
13409;DHT22;6775;49.574;11.170;2022-09-09T09:15:52;22.30;99.90
13409;DHT22;6775;49.574;11.170;2022-09-09T09:18:21;22.70;99.90
13409;DHT22;6775;49.574;11.170;2022-09-09T09:20:57;22.90;99.90
13409;DHT22;6775;49.574;11.170;2022-09-09T09:23:38;22.90;99.90
13409;DHT22;6775;49.574;11.170;2022-09-09T09:26:09;23.00;99.90
13409;DHT22;6775;49.574;11.170;2022-09-09T09:28:40;23.00;99.90
13409;DHT22;6775;49.574;11.170;2022-09-09T09:31:10;23.10;99.90
13409;DHT22;6775;49.574;11.170;2022-09-09T09:33:45;22.90;99.90
13409;DHT22;6775;49.574;11.170;2022-09-09T09:36:14;22.90;99.90
13409;DHT22;6775;49.574;11.170;2022-09-09T09:38:53;22.90;99.90
13409;DHT22;6775;49.574;11.170;2022-09-09T09:41:43;22.80;99.90
13409;DHT22;6775;49.574;11.170;2022-09-09T09:44:23;22.90;99.90
13409;DHT22;6775;49.574;11.170;2022-09-09T09:46:52;22.80;99.90
13409;DHT22;6775;49.574;11.170;2022-09-09T09:49:21;22.70;99.90
13409;DHT22;6775;49.574;11.170;2022-09-09T09:51:49;22.90;99.90
13409;DHT22;6775;49.574;11.170;2022-09-09T09:54:25;23.10;99.90
13409;DHT22;6775;49.574;11.170;2022-09-09T09:57:06;23.30;99.90
13409;DHT22;6775;49.574;11.170;2022-09-09T09:59:36;23.30;99.80
13409;DHT22;6775;49.574;11.170;2022-09-09T10:02:18;23.30;99.40
13409;DHT22;6775;49.574;11.170;2022-09-09T10:04:46;23.30;98.50
13409;DHT22;6775;49.574;11.170;2022-09-09T10:07:18;23.50;98.80
13409;DHT22;6775;49.574;11.170;2022-09-09T10:09:50;23.60;97.50
13409;DHT22;6775;49.574;11.170;2022-09-09T10:12:29;23.70;98.00
13409;DHT22;6775;49.574;11.170;2022-09-09T10:15:02;23.80;97.60
13409;DHT22;6775;49.574;11.170;2022-09-09T10:17:42;24.10;96.40
13409;DHT22;6775;49.574;11.170;2022-09-09T10:20:23;24.20;96.70
13409;DHT22;6775;49.574;11.170;2022-09-09T10:23:06;24.20;94.50
13409;DHT22;6775;49.574;11.170;2022-09-09T10:25:49;24.20;95.10
13409;DHT22;6775;49.574;11.170;2022-09-09T10:28:31;24.10;95.60
13409;DHT22;6775;49.574;11.170;2022-09-09T10:31:12;24.00;95.70
13409;DHT22;6775;49.574;11.170;2022-09-09T10:33:50;24.10;96.00
13409;DHT22;6775;49.574;11.170;2022-09-09T10:36:21;24.30;95.60
13409;DHT22;6775;49.574;11.170;2022-09-09T10:38:56;24.40;95.50
13409;DHT22;6775;49.574;11.170;2022-09-09T10:41:40;24.50;95.30
13409;DHT22;6775;49.574;11.170;2022-09-09T10:44:22;24.70;95.00
13409;DHT22;6775;49.574;11.170;2022-09-09T10:47:04;25.00;94.80
13409;DHT22;6775;49.574;11.170;2022-09-09T10:52:44;25.00;92.40
13409;DHT22;6775;49.574;11.170;2022-09-09T10:55:19;24.80;92.60
13409;DHT22;6775;49.574;11.170;2022-09-09T10:57:54;24.90;93.00
13409;DHT22;6775;49.574;11.170;2022-09-09T11:00:29;25.00;92.40
13409;DHT22;6775;49.574;11.170;2022-09-09T11:03:01;25.20;91.90
13409;DHT22;6775;49.574;11.170;2022-09-09T11:05:33;25.40;90.50
13409;DHT22;6775;49.574;11.170;2022-09-09T11:08:05;25.40;90.90
13409;DHT22;6775;49.574;11.170;2022-09-09T11:10:42;25.50;90.70
13409;DHT22;6775;49.574;11.170;2022-09-09T11:13:18;25.70;90.20
13409;DHT22;6775;49.574;11.170;2022-09-09T11:15:50;25.70;89.70
13409;DHT22;6775;49.574;11.170;2022-09-09T11:18:20;25.80;90.30
13409;DHT22;6775;49.574;11.170;2022-09-09T11:20:51;25.70;87.90
13409;DHT22;6775;49.574;11.170;2022-09-09T11:23:26;25.80;87.90
13409;DHT22;6775;49.574;11.170;2022-09-09T11:25:57;25.90;88.80
13409;DHT22;6775;49.574;11.170;2022-09-09T11:28:39;26.00;86.90
13409;DHT22;6775;49.574;11.170;2022-09-09T11:31:31;26.00;87.60
13409;DHT22;6775;49.574;11.170;2022-09-09T11:34:11;26.10;87.90
13409;DHT22;6775;49.574;11.170;2022-09-09T11:37:04;26.00;86.60
13409;DHT22;6775;49.574;11.170;2022-09-09T11:40:01;25.60;87.40
13409;DHT22;6775;49.574;11.170;2022-09-09T11:42:36;24.90;88.10
13409;DHT22;6775;49.574;11.170;2022-09-09T11:45:22;24.40;89.80
13409;DHT22;6775;49.574;11.170;2022-09-09T11:47:55;24.00;90.30
13409;DHT22;6775;49.574;11.170;2022-09-09T11:50:31;23.80;90.20
13409;DHT22;6775;49.574;11.170;2022-09-09T11:53:16;23.80;91.40
13409;DHT22;6775;49.574;11.170;2022-09-09T11:55:47;23.90;91.30
13409;DHT22;6775;49.574;11.170;2022-09-09T11:58:17;24.10;91.20
13409;DHT22;6775;49.574;11.170;2022-09-09T12:00:47;24.10;90.60
13409;DHT22;6775;49.574;11.170;2022-09-09T12:03:36;23.90;90.60
13409;DHT22;6775;49.574;11.170;2022-09-09T12:06:13;23.90;90.50
13409;DHT22;6775;49.574;11.170;2022-09-09T12:08:46;23.80;90.40
13409;DHT22;6775;49.574;11.170;2022-09-09T12:11:25;23.90;91.00
13409;DHT22;6775;49.574;11.170;2022-09-09T12:13:54;23.90;90.80
13409;DHT22;6775;49.574;11.170;2022-09-09T12:16:31;23.90;90.80
13409;DHT22;6775;49.574;11.170;2022-09-09T12:19:12;24.00;91.20
13409;DHT22;6775;49.574;11.170;2022-09-09T12:21:48;24.00;90.90
13409;DHT22;6775;49.574;11.170;2022-09-09T12:24:23;23.90;90.70
13409;DHT22;6775;49.574;11.170;2022-09-09T12:26:59;23.90;90.90
13409;DHT22;6775;49.574;11.170;2022-09-09T12:29:38;23.80;91.20
13409;DHT22;6775;49.574;11.170;2022-09-09T12:32:11;23.60;91.30
13409;DHT22;6775;49.574;11.170;2022-09-09T12:34:46;23.50;91.80
13409;DHT22;6775;49.574;11.170;2022-09-09T12:37:21;23.60;90.30
13409;DHT22;6775;49.574;11.170;2022-09-09T12:39:55;23.70;90.10
13409;DHT22;6775;49.574;11.170;2022-09-09T12:42:23;24.10;90.20
13409;DHT22;6775;49.574;11.170;2022-09-09T12:44:53;24.40;89.10
13409;DHT22;6775;49.574;11.170;2022-09-09T12:47:25;24.40;88.30
13409;DHT22;6775;49.574;11.170;2022-09-09T12:49:58;24.60;89.90
13409;DHT22;6775;49.574;11.170;2022-09-09T12:52:29;24.50;89.00
13409;DHT22;6775;49.574;11.170;2022-09-09T12:54:59;24.50;90.10
13409;DHT22;6775;49.574;11.170;2022-09-09T12:57:34;24.20;87.80
13409;DHT22;6775;49.574;11.170;2022-09-09T13:00:11;24.00;87.50
13409;DHT22;6775;49.574;11.170;2022-09-09T13:02:48;23.70;88.00
13409;DHT22;6775;49.574;11.170;2022-09-09T13:05:21;23.60;88.40
13409;DHT22;6775;49.574;11.170;2022-09-09T13:07:49;23.40;88.60
13409;DHT22;6775;49.574;11.170;2022-09-09T13:10:24;23.30;89.90
13409;DHT22;6775;49.574;11.170;2022-09-09T13:13:13;23.20;90.50
13409;DHT22;6775;49.574;11.170;2022-09-09T13:15:49;23.00;91.20
13409;DHT22;6775;49.574;11.170;2022-09-09T13:18:21;22.70;91.90
13409;DHT22;6775;49.574;11.170;2022-09-09T13:20:51;22.40;92.70
13409;DHT22;6775;49.574;11.170;2022-09-09T13:23:21;22.20;93.60
13409;DHT22;6775;49.574;11.170;2022-09-09T13:25:59;22.00;94.40
13409;DHT22;6775;49.574;11.170;2022-09-09T13:28:30;21.80;95.60
13409;DHT22;6775;49.574;11.170;2022-09-09T13:31:01;21.70;96.40
13409;DHT22;6775;49.574;11.170;2022-09-09T13:33:32;21.60;97.30
13409;DHT22;6775;49.574;11.170;2022-09-09T13:36:04;21.40;99.80
13409;DHT22;6775;49.574;11.170;2022-09-09T13:38:35;21.30;99.90
13409;DHT22;6775;49.574;11.170;2022-09-09T13:41:05;21.20;99.90
13409;DHT22;6775;49.574;11.170;2022-09-09T13:43:37;21.00;99.90
13409;DHT22;6775;49.574;11.170;2022-09-09T13:46:26;20.90;99.90
13409;DHT22;6775;49.574;11.170;2022-09-09T13:48:57;21.10;99.90
13409;DHT22;6775;49.574;11.170;2022-09-09T13:51:33;21.30;99.90
13409;DHT22;6775;49.574;11.170;2022-09-09T13:54:01;21.40;99.90
13409;DHT22;6775;49.574;11.170;2022-09-09T13:56:29;21.50;99.90
13409;DHT22;6775;49.574;11.170;2022-09-09T13:58:58;21.50;99.90
13409;DHT22;6775;49.574;11.170;2022-09-09T14:01:26;21.50;99.90
13409;DHT22;6775;49.574;11.170;2022-09-09T14:03:55;21.50;99.90
13409;DHT22;6775;49.574;11.170;2022-09-09T14:06:23;21.50;99.90
13409;DHT22;6775;49.574;11.170;2022-09-09T14:08:52;21.50;99.90
13409;DHT22;6775;49.574;11.170;2022-09-09T14:11:21;21.40;99.90
13409;DHT22;6775;49.574;11.170;2022-09-09T14:13:49;21.40;99.90
13409;DHT22;6775;49.574;11.170;2022-09-09T14:16:17;21.40;99.90
13409;DHT22;6775;49.574;11.170;2022-09-09T14:18:46;21.40;99.90
13409;DHT22;6775;49.574;11.170;2022-09-09T14:21:14;21.40;99.90
13409;DHT22;6775;49.574;11.170;2022-09-09T14:23:42;21.40;99.90
13409;DHT22;6775;49.574;11.170;2022-09-09T14:26:11;21.50;99.90
13409;DHT22;6775;49.574;11.170;2022-09-09T14:28:40;21.50;99.90
13409;DHT22;6775;49.574;11.170;2022-09-09T14:31:21;21.40;99.90
13409;DHT22;6775;49.574;11.170;2022-09-09T14:33:49;21.60;99.90
13409;DHT22;6775;49.574;11.170;2022-09-09T14:36:18;21.70;99.90
13409;DHT22;6775;49.574;11.170;2022-09-09T14:38:46;21.80;99.90
13409;DHT22;6775;49.574;11.170;2022-09-09T14:41:19;21.80;99.90
13409;DHT22;6775;49.574;11.170;2022-09-09T14:43:49;21.90;99.60
13409;DHT22;6775;49.574;11.170;2022-09-09T14:46:19;21.90;99.30
13409;DHT22;6775;49.574;11.170;2022-09-09T14:48:47;21.80;99.30
13409;DHT22;6775;49.574;11.170;2022-09-09T14:51:17;21.80;99.10
13409;DHT22;6775;49.574;11.170;2022-09-09T14:53:46;21.80;99.60
13409;DHT22;6775;49.574;11.170;2022-09-09T14:56:17;21.70;99.50
13409;DHT22;6775;49.574;11.170;2022-09-09T14:58:45;21.70;99.40
13409;DHT22;6775;49.574;11.170;2022-09-09T15:01:16;21.50;99.30
13409;DHT22;6775;49.574;11.170;2022-09-09T15:03:50;21.40;99.30
13409;DHT22;6775;49.574;11.170;2022-09-09T15:06:19;21.20;99.70
13409;DHT22;6775;49.574;11.170;2022-09-09T15:08:50;21.00;99.70
13409;DHT22;6775;49.574;11.170;2022-09-09T15:11:20;20.90;99.90
13409;DHT22;6775;49.574;11.170;2022-09-09T15:13:51;20.80;99.90
13409;DHT22;6775;49.574;11.170;2022-09-09T15:16:23;20.80;99.90
13409;DHT22;6775;49.574;11.170;2022-09-09T15:18:53;20.70;99.90
13409;DHT22;6775;49.574;11.170;2022-09-09T15:21:23;20.60;99.90
13409;DHT22;6775;49.574;11.170;2022-09-09T15:23:51;20.70;99.90
13409;DHT22;6775;49.574;11.170;2022-09-09T15:26:21;20.70;99.90
13409;DHT22;6775;49.574;11.170;2022-09-09T15:28:49;20.70;99.90
13409;DHT22;6775;49.574;11.170;2022-09-09T15:31:19;20.70;99.90
13409;DHT22;6775;49.574;11.170;2022-09-09T15:33:47;20.70;99.90
13409;DHT22;6775;49.574;11.170;2022-09-09T15:36:17;20.60;99.90
13409;DHT22;6775;49.574;11.170;2022-09-09T15:38:45;20.70;99.90
13409;DHT22;6775;49.574;11.170;2022-09-09T15:41:15;20.70;99.90
13409;DHT22;6775;49.574;11.170;2022-09-09T15:43:46;20.70;99.90
13409;DHT22;6775;49.574;11.170;2022-09-09T15:46:27;20.60;99.90
13409;DHT22;6775;49.574;11.170;2022-09-09T15:48:56;20.70;99.90
13409;DHT22;6775;49.574;11.170;2022-09-09T15:51:25;20.70;99.90
13409;DHT22;6775;49.574;11.170;2022-09-09T15:54:09;20.70;99.90
13409;DHT22;6775;49.574;11.170;2022-09-09T15:56:38;20.70;99.90
13409;DHT22;6775;49.574;11.170;2022-09-09T15:59:07;20.60;99.90
13409;DHT22;6775;49.574;11.170;2022-09-09T16:01:36;20.60;99.90
13409;DHT22;6775;49.574;11.170;2022-09-09T16:04:06;20.60;99.90
13409;DHT22;6775;49.574;11.170;2022-09-09T16:06:34;20.60;99.90
13409;DHT22;6775;49.574;11.170;2022-09-09T16:09:04;20.60;99.90